Aviation Digital Data Service (ADDS)

Output produced by METARs form (0640 UTC 27 March 2017)
found at http://www.aviationweather.gov/adds/metars/
 
SEGU 270430Z 2706/2806 27004KT 8000 RA FEW013 BKN020 BKN100 
     TEMPO 2707/2710 6000 TSRA 
     FM271200 05006KT 9999 SCT020 BKN100 
     FM271700 15006KT 9999 SCT026 SCT100 
     TEMPO 2720/2723 8000 SHRA 
     FM280000 22006KT 9999 SCT030 BKN100 TX32/2720Z TN24/2710Z
       
SELT 270430Z 2706/2806 03003KT 9999 FEW008 BKN030 
     FM271200 VRB03KT 9999 SCT016 BKN033 
     FM271800 35008KT 9999 BKN026 BKN100 
     TEMPO 2719/2722 RA 
     FM280000 35006KT 9999 FEW010 BKN030 TX19/2718Z TN10/2711Z
       
SEMT 270430Z 2706/2806 21004KT 9999 BKN020 
     TEMPO 2708/2711 8000 RA 
     FM271500 34006KT 9999 SCT020 SCT100 
     BECMG 2720/2723 32010KT BKN020 SCT100 
     FM280000 22004KT 9999 BKN020 TX31/2720Z TN24/2711Z
       
SEQM 270430Z 2706/2806 00000KT 9999 BKN020 BKN100 
     TEMPO 2709/2711 6000 BCFG FEW005 BKN020 BKN100 
     FM271200 VRB03KT 9999 FEW010 SCT030 BKN100 
     FM271800 36008KT 9999 BKN030 BKN100 
     TEMPO 2720/2723 RA 
     FM280000 03004KT 9999 FEW010 BKN026 BKN100 
     TEMPO 2802/2804 RA TX19/2719Z TN12/2711Z